Time;durP1;ratioP1;P1;durP2;ratioP2;P2;SDS_P1;SDS_P2;PMS_P1;PMS_P2;Temp;Humidity;BMP_temperature;BMP_pressure;BME280_temperature;BME280_humidity;BME280_pressure;Samples;Min_cycle;Max_cycle;Signal;HPM_P1;HPM_P2
2023/05/25 00:01:47;;;;;;;5.32;2.40;;;14.50;99.90;;;;;;5075655;28;20032;-62
2023/05/25 00:04:15;;;;;;;6.80;2.08;;;14.60;99.90;;;;;;5082653;28;20488;-62
2023/05/25 00:06:46;;;;;;;6.53;2.38;;;14.70;99.90;;;;;;5073826;28;20099;-62
2023/05/25 00:09:14;;;;;;;5.35;2.05;;;14.80;99.90;;;;;;5073280;28;20028;-61
2023/05/25 00:11:41;;;;;;;6.22;1.55;;;15.00;99.90;;;;;;5085372;28;20024;-62
2023/05/25 00:14:09;;;;;;;6.28;2.33;;;15.20;99.90;;;;;;5080305;28;20016;-60
2023/05/25 00:16:39;;;;;;;10.77;2.38;;;15.30;99.90;;;;;;5075569;28;20107;-62
2023/05/25 00:19:09;;;;;;;6.78;2.67;;;15.50;99.90;;;;;;5082407;28;20065;-62
2023/05/25 00:21:40;;;;;;;7.68;2.17;;;15.70;99.90;;;;;;5074325;28;20032;-62
2023/05/25 00:24:08;;;;;;;7.18;2.63;;;15.80;99.90;;;;;;5059142;28;20021;-62
2023/05/25 00:26:36;;;;;;;5.13;2.17;;;16.00;99.90;;;;;;5076196;28;20507;-62
2023/05/25 00:29:06;;;;;;;4.13;1.83;;;16.20;99.90;;;;;;5073107;28;20036;-63
2023/05/25 00:31:35;;;;;;;5.97;2.00;;;16.30;97.90;;;;;;5074788;28;20510;-63
2023/05/25 00:34:02;;;;;;;6.78;2.53;;;16.40;97.50;;;;;;5072767;28;20129;-63
2023/05/25 00:36:30;;;;;;;7.25;2.33;;;16.50;98.60;;;;;;5080526;28;20044;-62
2023/05/25 00:38:58;;;;;;;4.95;2.08;;;16.50;97.10;;;;;;5073273;28;20051;-64
2023/05/25 00:41:27;;;;;;;6.25;2.45;;;16.40;96.80;;;;;;5077331;28;20029;-64
2023/05/25 00:43:54;;;;;;;6.38;2.55;;;16.40;97.60;;;;;;5074609;28;20063;-65
2023/05/25 00:46:22;;;;;;;5.40;2.13;;;16.50;96.90;;;;;;5084528;28;20027;-63
2023/05/25 00:48:55;;;;;;;4.80;2.22;;;16.50;97.30;;;;;;5055592;28;20028;-61
2023/05/25 00:51:22;;;;;;;6.57;2.58;;;16.60;96.00;;;;;;5071163;28;20058;-61
2023/05/25 00:53:51;;;;;;;9.05;2.08;;;16.80;96.70;;;;;;5071414;28;20075;-63
2023/05/25 00:56:29;;;;;;;5.53;2.40;;;16.80;94.90;;;;;;5080013;28;20042;-63
2023/05/25 00:59:02;;;;;;;6.78;2.40;;;16.90;95.10;;;;;;5060912;28;20122;-63
2023/05/25 01:01:38;;;;;;;5.15;2.55;;;17.00;95.70;;;;;;5075352;28;20024;-63
2023/05/25 01:04:12;;;;;;;4.80;2.20;;;17.20;95.00;;;;;;5054183;28;20675;-64
2023/05/25 01:06:42;;;;;;;6.68;2.72;;;17.30;95.20;;;;;;5073391;28;20029;-63
2023/05/25 01:09:13;;;;;;;5.93;2.20;;;17.40;97.10;;;;;;5072749;28;20115;-63
2023/05/25 01:11:44;;;;;;;9.35;2.70;;;17.60;95.70;;;;;;5081326;28;20162;-64
2023/05/25 01:14:12;;;;;;;8.07;2.47;;;17.80;94.60;;;;;;5075325;28;20040;-63
2023/05/25 01:16:40;;;;;;;6.32;2.45;;;17.90;95.00;;;;;;5057341;28;20389;-63
2023/05/25 01:19:09;;;;;;;10.88;2.90;;;18.00;94.80;;;;;;5079154;28;20032;-63
2023/05/25 01:21:53;;;;;;;10.23;2.90;;;18.20;94.70;;;;;;5078384;28;20099;-63
2023/05/25 01:24:31;;;;;;;3.72;2.33;;;18.30;93.90;;;;;;5077004;28;20461;-63
2023/05/25 01:27:15;;;;;;;8.70;2.58;;;18.50;94.10;;;;;;5096172;28;20020;-63
2023/05/25 01:29:45;;;;;;;7.72;3.05;;;18.60;93.30;;;;;;5082609;28;20841;-63
2023/05/25 01:32:17;;;;;;;7.22;2.70;;;18.70;93.90;;;;;;5098781;28;20032;-64
2023/05/25 01:34:46;;;;;;;5.97;3.10;;;18.90;92.40;;;;;;5076773;28;20391;-63
2023/05/25 01:37:16;;;;;;;8.55;2.85;;;18.90;92.80;;;;;;5072114;28;20027;-63
2023/05/25 01:39:44;;;;;;;7.47;2.85;;;19.00;92.20;;;;;;5066907;28;20032;-63
2023/05/25 01:42:11;;;;;;;14.70;2.47;;;19.20;92.00;;;;;;5077156;28;20029;-64
2023/05/25 01:44:39;;;;;;;7.43;2.60;;;19.30;92.40;;;;;;5074800;28;20478;-62
2023/05/25 01:47:32;;;;;;;12.30;2.80;;;19.40;91.30;;;;;;5077941;28;20024;-64
2023/05/25 01:50:36;;;;;;;10.55;3.25;;;19.40;90.90;;;;;;5080412;28;20033;-63
2023/05/25 01:53:24;;;;;;;7.00;2.90;;;19.50;90.30;;;;;;5057810;28;20049;-64
2023/05/25 01:56:07;;;;;;;8.48;2.65;;;19.50;90.20;;;;;;5059533;28;20081;-63
2023/05/25 01:58:44;;;;;;;5.28;2.85;;;19.60;90.60;;;;;;5079012;28;20024;-64
2023/05/25 02:01:15;;;;;;;6.47;2.60;;;19.60;90.00;;;;;;5075861;28;20472;-64
2023/05/25 02:03:43;;;;;;;10.23;3.38;;;19.60;89.20;;;;;;5052968;28;20028;-64
2023/05/25 02:06:11;;;;;;;8.15;3.30;;;19.50;90.20;;;;;;5052168;28;20115;-64
2023/05/25 02:08:38;;;;;;;10.80;4.03;;;19.40;90.30;;;;;;5071117;28;20024;-63
2023/05/25 02:11:06;;;;;;;8.68;3.80;;;19.40;90.70;;;;;;5087875;28;20027;-63
2023/05/25 02:13:33;;;;;;;12.00;3.05;;;19.40;91.30;;;;;;5068475;28;20028;-63
2023/05/25 02:16:01;;;;;;;9.80;3.00;;;19.30;90.70;;;;;;5070089;28;20394;-63
2023/05/25 02:18:28;;;;;;;6.55;3.95;;;19.30;90.70;;;;;;5065584;28;20078;-63
2023/05/25 02:20:56;;;;;;;11.98;3.60;;;19.30;90.40;;;;;;5072667;28;20025;-63
2023/05/25 02:23:23;;;;;;;15.98;4.00;;;19.20;91.30;;;;;;5062974;28;20489;-63
2023/05/25 02:25:51;;;;;;;12.20;3.08;;;19.30;91.80;;;;;;5062270;28;20583;-63
2023/05/25 02:28:18;;;;;;;13.95;3.80;;;19.30;91.00;;;;;;5075876;28;20028;-62
2023/05/25 02:30:46;;;;;;;7.65;3.38;;;19.30;92.10;;;;;;5094681;28;20023;-62
2023/05/25 02:33:14;;;;;;;13.38;3.65;;;19.30;92.20;;;;;;5053381;28;20032;-63
2023/05/25 02:35:42;;;;;;;9.93;3.72;;;19.30;92.00;;;;;;5054932;28;20119;-63
2023/05/25 02:38:09;;;;;;;11.88;3.65;;;19.20;93.30;;;;;;5074908;28;20024;-62
2023/05/25 02:40:36;;;;;;;11.32;3.38;;;19.10;93.30;;;;;;5080150;28;20024;-62
2023/05/25 02:43:04;;;;;;;13.73;4.40;;;19.10;93.80;;;;;;5079007;28;20020;-63
2023/05/25 02:45:31;;;;;;;16.08;4.05;;;19.00;94.10;;;;;;5081229;28;20081;-62
2023/05/25 02:47:59;;;;;;;15.40;4.53;;;18.90;93.60;;;;;;5074569;28;20025;-63
2023/05/25 02:50:26;;;;;;;16.40;5.00;;;18.80;95.90;;;;;;5084019;28;20043;-63
2023/05/25 02:52:54;;;;;;;17.45;4.35;;;18.60;96.50;;;;;;5075711;28;20048;-63
2023/05/25 02:55:21;;;;;;;19.02;4.47;;;18.50;97.10;;;;;;5073712;28;20020;-62
2023/05/25 02:57:49;;;;;;;8.77;3.90;;;18.40;98.30;;;;;;5068471;28;20450;-64
2023/05/25 03:00:18;;;;;;;9.70;4.15;;;18.40;99.00;;;;;;5090912;28;20542;-62
2023/05/25 03:02:47;;;;;;;10.05;3.75;;;18.30;98.80;;;;;;5056519;28;20546;-64
2023/05/25 03:05:16;;;;;;;8.20;3.72;;;18.30;99.70;;;;;;5074453;28;20048;-63
2023/05/25 03:07:44;;;;;;;21.70;4.03;;;18.20;99.80;;;;;;5094584;28;20058;-63
2023/05/25 03:10:12;;;;;;;12.13;4.15;;;18.20;99.40;;;;;;5079183;28;20024;-64
2023/05/25 03:12:39;;;;;;;12.95;4.50;;;18.20;99.60;;;;;;5086369;28;20094;-63
2023/05/25 03:15:08;;;;;;;12.05;4.70;;;18.10;99.90;;;;;;5094457;28;20040;-64
2023/05/25 03:17:35;;;;;;;12.75;5.22;;;18.00;99.90;;;;;;5055384;28;20028;-61
2023/05/25 03:20:03;;;;;;;12.35;4.20;;;17.90;99.90;;;;;;5061282;28;20044;-62
2023/05/25 03:22:30;;;;;;;8.77;3.63;;;17.80;99.90;;;;;;5070457;28;20123;-63
2023/05/25 03:24:58;;;;;;;10.70;3.33;;;17.80;99.90;;;;;;5086837;28;20062;-63
2023/05/25 03:27:26;;;;;;;11.25;3.92;;;17.70;99.90;;;;;;5087365;28;20516;-63
2023/05/25 03:29:53;;;;;;;9.70;3.28;;;17.70;99.90;;;;;;5085530;28;20036;-62
2023/05/25 03:32:22;;;;;;;11.95;4.55;;;17.70;99.90;;;;;;5078641;28;20031;-63
2023/05/25 03:34:50;;;;;;;10.52;3.25;;;17.70;99.90;;;;;;5077894;28;20130;-62
2023/05/25 03:37:17;;;;;;;12.52;3.65;;;17.70;99.90;;;;;;5077177;28;20429;-62
2023/05/25 03:39:45;;;;;;;10.38;3.58;;;17.70;99.90;;;;;;5082790;28;20072;-63
2023/05/25 03:42:12;;;;;;;11.60;4.13;;;17.80;99.90;;;;;;5079228;28;20069;-62
2023/05/25 03:44:40;;;;;;;9.48;3.72;;;17.90;99.90;;;;;;5094788;28;20032;-62
2023/05/25 03:47:07;;;;;;;9.88;3.92;;;17.80;99.90;;;;;;5076686;28;20099;-63
2023/05/25 03:49:35;;;;;;;15.02;4.65;;;17.70;99.90;;;;;;5057440;28;20548;-63
2023/05/25 03:52:02;;;;;;;13.75;4.55;;;17.60;99.90;;;;;;5077566;28;20153;-64
2023/05/25 03:54:30;;;;;;;13.13;4.30;;;17.70;99.90;;;;;;5073132;28;20093;-62
2023/05/25 03:56:58;;;;;;;9.32;4.43;;;17.70;99.90;;;;;;5072167;28;20033;-62
2023/05/25 03:59:25;;;;;;;11.50;4.70;;;17.70;99.90;;;;;;5079905;28;20031;-63
2023/05/25 04:01:53;;;;;;;16.00;5.82;;;17.70;99.90;;;;;;5080022;28;20051;-62
2023/05/25 04:04:21;;;;;;;13.52;5.78;;;17.60;99.90;;;;;;5076727;28;20025;-63
2023/05/25 04:06:48;;;;;;;14.25;4.78;;;17.50;99.90;;;;;;5073798;28;20511;-64
2023/05/25 04:09:16;;;;;;;14.68;4.82;;;17.40;99.90;;;;;;5084016;28;20031;-62
2023/05/25 04:11:46;;;;;;;15.82;5.05;;;17.40;99.90;;;;;;5056046;28;20469;-63
2023/05/25 04:14:13;;;;;;;11.48;4.57;;;17.30;99.90;;;;;;5056926;28;20050;-61
2023/05/25 04:16:41;;;;;;;12.40;5.13;;;17.20;99.90;;;;;;5079381;28;20028;-63
2023/05/25 04:19:08;;;;;;;14.82;5.50;;;17.20;99.90;;;;;;5073409;28;20024;-63
2023/05/25 04:21:36;;;;;;;10.35;4.90;;;17.10;99.90;;;;;;5076921;28;20430;-62
2023/05/25 04:24:03;;;;;;;10.13;4.38;;;17.10;99.90;;;;;;5078812;28;20024;-63
2023/05/25 04:26:31;;;;;;;8.35;3.67;;;17.20;99.90;;;;;;5084874;28;20028;-63
2023/05/25 04:29:00;;;;;;;10.23;4.32;;;17.30;99.90;;;;;;5077879;28;20033;-63
2023/05/25 04:31:28;;;;;;;12.55;3.30;;;17.40;99.90;;;;;;5080908;28;20020;-63
2023/05/25 04:33:57;;;;;;;8.48;2.95;;;17.40;99.80;;;;;;5063655;28;20029;-62
2023/05/25 04:36:25;;;;;;;8.88;2.92;;;17.50;99.80;;;;;;5084125;28;20036;-62
2023/05/25 04:38:54;;;;;;;7.20;3.40;;;17.60;99.60;;;;;;5072427;28;20028;-62
2023/05/25 04:41:21;;;;;;;11.25;3.17;;;17.70;99.70;;;;;;5067150;28;20028;-63
2023/05/25 04:43:49;;;;;;;8.35;4.18;;;17.80;99.80;;;;;;5071354;28;20033;-64
2023/05/25 04:46:16;;;;;;;9.32;3.17;;;17.80;99.40;;;;;;5074479;28;20078;-64
2023/05/25 04:48:44;;;;;;;8.93;4.22;;;17.90;98.70;;;;;;5078982;28;20038;-64
2023/05/25 04:51:12;;;;;;;8.18;3.42;;;18.00;98.10;;;;;;5077218;28;20082;-64
2023/05/25 04:53:40;;;;;;;9.82;3.05;;;18.00;97.40;;;;;;5074717;28;20040;-62
2023/05/25 04:56:07;;;;;;;9.85;2.70;;;18.10;96.90;;;;;;5069162;28;20051;-63
2023/05/25 04:58:35;;;;;;;10.00;2.70;;;18.00;96.50;;;;;;5074707;28;20043;-62
2023/05/25 05:01:02;;;;;;;10.73;3.45;;;18.10;95.90;;;;;;5076895;28;20047;-63
2023/05/25 05:03:30;;;;;;;11.20;2.78;;;18.00;95.50;;;;;;5080439;28;20020;-63
2023/05/25 05:05:57;;;;;;;6.38;2.42;;;18.00;94.90;;;;;;5085228;28;20028;-62
2023/05/25 05:08:25;;;;;;;7.22;2.60;;;18.00;94.80;;;;;;5058123;28;21441;-63
2023/05/25 05:10:52;;;;;;;8.65;2.30;;;18.00;94.50;;;;;;5073119;28;20036;-62
2023/05/25 05:13:20;;;;;;;6.47;2.42;;;18.00;93.80;;;;;;5080281;28;20023;-62
2023/05/25 05:15:47;;;;;;;10.10;2.85;;;17.90;93.60;;;;;;5076855;28;20068;-62
2023/05/25 05:18:15;;;;;;;7.05;2.58;;;17.90;93.70;;;;;;5084091;28;20050;-63
2023/05/25 05:20:43;;;;;;;9.95;2.67;;;17.90;93.80;;;;;;5078207;28;20020;-62
2023/05/25 05:23:11;;;;;;;7.68;2.38;;;17.90;93.80;;;;;;5072609;28;20070;-62
2023/05/25 05:25:38;;;;;;;6.93;2.47;;;18.00;93.90;;;;;;5073389;28;20020;-65
2023/05/25 05:28:06;;;;;;;9.73;2.65;;;18.00;94.10;;;;;;5071956;28;20024;-64
2023/05/25 05:30:34;;;;;;;10.52;2.22;;;18.00;93.60;;;;;;5076623;28;20528;-65
2023/05/25 05:33:02;;;;;;;7.03;2.45;;;18.10;93.70;;;;;;5060575;28;20822;-65
2023/05/25 05:35:30;;;;;;;7.03;2.28;;;18.10;93.70;;;;;;5072752;28;20052;-64
2023/05/25 05:37:58;;;;;;;8.23;2.53;;;18.20;93.50;;;;;;5056647;28;20554;-65
2023/05/25 05:40:26;;;;;;;8.38;2.60;;;18.20;93.00;;;;;;5073301;28;20082;-64
2023/05/25 05:42:53;;;;;;;8.18;2.78;;;18.20;93.40;;;;;;5075029;28;20033;-65
2023/05/25 05:45:20;;;;;;;10.75;3.45;;;18.20;93.40;;;;;;5069559;28;20025;-64
2023/05/25 05:47:48;;;;;;;11.80;4.60;;;18.20;94.40;;;;;;5076562;28;20028;-64
2023/05/25 05:50:15;;;;;;;10.57;4.82;;;18.20;97.00;;;;;;5076594;28;20077;-64
2023/05/25 05:52:43;;;;;;;15.07;4.75;;;18.20;98.90;;;;;;5085898;28;20036;-65
2023/05/25 05:55:10;;;;;;;15.90;5.30;;;18.10;99.60;;;;;;5074128;28;20496;-63
2023/05/25 05:57:38;;;;;;;13.60;4.10;;;18.00;99.70;;;;;;5054154;28;20025;-63
2023/05/25 06:00:06;;;;;;;16.75;4.57;;;17.80;99.90;;;;;;5073537;28;20020;-64
2023/05/25 06:02:33;;;;;;;15.75;4.55;;;17.70;99.90;;;;;;5072891;28;20056;-64
2023/05/25 06:05:01;;;;;;;23.85;5.80;;;17.60;99.90;;;;;;5079328;28;20504;-63
2023/05/25 06:07:29;;;;;;;13.18;4.90;;;17.50;99.90;;;;;;5075894;28;20060;-63
2023/05/25 06:09:57;;;;;;;11.73;3.80;;;17.30;99.90;;;;;;5078222;28;20022;-63
2023/05/25 06:12:28;;;;;;;13.80;5.20;;;17.20;99.90;;;;;;5083833;28;20069;-63
2023/05/25 06:14:55;;;;;;;11.88;4.22;;;17.00;99.90;;;;;;5074319;28;20090;-64
2023/05/25 06:17:25;;;;;;;13.80;4.82;;;16.90;99.90;;;;;;5066025;28;20017;-63
2023/05/25 06:19:53;;;;;;;14.45;4.60;;;16.70;99.90;;;;;;5074917;28;21080;-63
2023/05/25 06:22:22;;;;;;;18.58;5.05;;;16.50;99.90;;;;;;5080091;28;20571;-63
2023/05/25 06:24:50;;;;;;;11.43;4.15;;;16.40;99.90;;;;;;5084224;28;21004;-63
2023/05/25 06:27:18;;;;;;;14.80;4.50;;;16.30;99.90;;;;;;5079029;28;20479;-63
2023/05/25 06:29:45;;;;;;;8.68;4.05;;;16.20;99.90;;;;;;5075649;28;20024;-63
2023/05/25 06:32:12;;;;;;;13.38;3.75;;;16.10;99.90;;;;;;5068313;28;20073;-64
2023/05/25 06:34:40;;;;;;;13.95;4.25;;;16.00;99.90;;;;;;5074958;28;20048;-64
2023/05/25 06:37:07;;;;;;;12.25;3.47;;;15.90;99.90;;;;;;5077457;28;20024;-63
2023/05/25 06:39:35;;;;;;;7.78;3.33;;;15.80;99.90;;;;;;5078907;28;20020;-63
2023/05/25 06:42:02;;;;;;;8.65;3.78;;;15.80;99.90;;;;;;5082044;28;20073;-64
2023/05/25 06:44:30;;;;;;;6.97;3.20;;;15.60;99.90;;;;;;5076025;28;20020;-63
2023/05/25 06:46:57;;;;;;;10.93;3.83;;;15.50;99.90;;;;;;5087811;28;20037;-63
2023/05/25 06:49:25;;;;;;;10.88;3.97;;;15.40;99.90;;;;;;5081340;28;20020;-63
2023/05/25 06:51:52;;;;;;;9.68;3.17;;;15.40;99.90;;;;;;5074964;28;20032;-62
2023/05/25 06:54:20;;;;;;;9.43;3.53;;;15.30;99.90;;;;;;5076654;28;20515;-62
2023/05/25 06:56:47;;;;;;;8.27;2.90;;;15.20;99.90;;;;;;5064965;28;20032;-61
2023/05/25 06:59:14;;;;;;;8.77;3.00;;;15.10;99.90;;;;;;5058804;28;20027;-60
2023/05/25 07:01:42;;;;;;;12.18;3.30;;;15.10;99.90;;;;;;5086733;28;20044;-60
2023/05/25 07:04:10;;;;;;;8.02;2.47;;;15.00;99.90;;;;;;5082340;28;20063;-61
2023/05/25 07:06:37;;;;;;;6.28;2.58;;;14.90;99.90;;;;;;5094500;28;20024;-60
2023/05/25 07:09:05;;;;;;;9.82;2.88;;;14.90;99.90;;;;;;5079156;28;20159;-61
2023/05/25 07:11:32;;;;;;;10.80;3.05;;;14.80;99.90;;;;;;5060497;28;20017;-62
2023/05/25 07:14:00;;;;;;;12.35;3.08;;;14.80;99.90;;;;;;5092776;28;20077;-61
2023/05/25 07:16:27;;;;;;;9.95;2.90;;;14.70;99.90;;;;;;5079114;28;20029;-62
2023/05/25 07:18:55;;;;;;;5.15;2.15;;;14.60;99.90;;;;;;5056126;28;20513;-62
2023/05/25 07:21:22;;;;;;;8.52;2.30;;;14.70;99.90;;;;;;5083614;28;20049;-61
2023/05/25 07:23:50;;;;;;;9.18;2.60;;;14.90;99.90;;;;;;5088041;28;20088;-61
2023/05/25 07:26:20;;;;;;;8.90;2.97;;;15.10;97.10;;;;;;5079271;28;20109;-61
2023/05/25 07:28:47;;;;;;;7.00;2.53;;;15.30;94.00;;;;;;5064404;28;20032;-61
2023/05/25 07:31:15;;;;;;;6.82;2.88;;;15.50;91.70;;;;;;5076339;28;20023;-61
2023/05/25 07:33:43;;;;;;;5.18;1.80;;;15.70;87.80;;;;;;5066196;28;20090;-61
2023/05/25 07:36:11;;;;;;;5.93;1.70;;;15.90;82.30;;;;;;5091790;28;20055;-60
2023/05/25 07:38:38;;;;;;;6.03;1.33;;;16.10;76.80;;;;;;5076003;28;20031;-61
2023/05/25 07:41:06;;;;;;;8.18;2.13;;;16.20;75.40;;;;;;5073507;28;20020;-60
2023/05/25 07:43:33;;;;;;;5.50;1.63;;;16.20;73.40;;;;;;5080840;28;20437;-62
2023/05/25 07:46:01;;;;;;;6.47;1.65;;;16.20;72.70;;;;;;5072883;28;20031;-61
2023/05/25 07:48:29;;;;;;;10.32;2.28;;;16.20;71.50;;;;;;5084667;28;20026;-62
2023/05/25 07:50:56;;;;;;;5.03;2.05;;;16.20;71.80;;;;;;5061725;28;20489;-62
2023/05/25 07:53:23;;;;;;;7.40;2.10;;;16.10;71.90;;;;;;5073465;28;20053;-61
2023/05/25 07:55:51;;;;;;;5.30;1.90;;;16.00;73.10;;;;;;5091773;28;20028;-61
2023/05/25 07:58:19;;;;;;;5.18;1.92;;;15.90;72.80;;;;;;5075958;28;20103;-61
2023/05/25 08:00:48;;;;;;;6.75;1.80;;;15.80;73.50;;;;;;5086605;28;20032;-60
2023/05/25 08:03:16;;;;;;;5.40;1.77;;;15.70;73.60;;;;;;5077473;28;20103;-61
2023/05/25 08:05:44;;;;;;;3.33;1.38;;;15.50;73.80;;;;;;5076977;28;20105;-61
2023/05/25 08:08:13;;;;;;;6.50;1.73;;;15.40;74.10;;;;;;5073516;28;20469;-61
2023/05/25 08:10:40;;;;;;;6.53;2.58;;;15.30;74.20;;;;;;5072103;28;20028;-61
2023/05/25 08:13:08;;;;;;;3.88;1.63;;;15.20;74.60;;;;;;5072270;28;20024;-62
2023/05/25 08:15:35;;;;;;;9.70;3.13;;;15.00;75.10;;;;;;5079832;28;20036;-60
2023/05/25 08:18:03;;;;;;;6.72;2.05;;;15.00;75.80;;;;;;5078633;28;20024;-61
2023/05/25 08:20:31;;;;;;;6.43;1.92;;;14.90;76.30;;;;;;5071700;28;20035;-62
2023/05/25 08:22:58;;;;;;;5.80;1.75;;;14.80;76.50;;;;;;5082448;28;20021;-61
2023/05/25 08:25:26;;;;;;;6.53;1.80;;;14.90;77.90;;;;;;5074170;28;20033;-61
2023/05/25 08:27:56;;;;;;;5.35;2.08;;;14.90;78.80;;;;;;5080751;28;20842;-60
2023/05/25 08:30:24;;;;;;;6.00;1.95;;;14.80;79.80;;;;;;5060495;28;20495;-61
2023/05/25 08:32:52;;;;;;;4.70;2.03;;;14.70;78.60;;;;;;5079126;28;20024;-60
2023/05/25 08:35:19;;;;;;;10.90;2.40;;;14.60;78.50;;;;;;5075064;28;20511;-61
2023/05/25 08:37:47;;;;;;;12.88;3.42;;;14.50;78.80;;;;;;5077714;28;20507;-61
2023/05/25 08:40:15;;;;;;;7.03;3.20;;;14.50;81.70;;;;;;5067330;28;20035;-58
2023/05/25 08:42:44;;;;;;;9.50;3.90;;;14.40;82.20;;;;;;5067758;28;20025;-59
2023/05/25 08:45:12;;;;;;;16.67;9.15;;;14.20;83.00;;;;;;5078035;28;20028;-60
2023/05/25 08:47:44;;;;;;;12.65;6.13;;;14.20;82.70;;;;;;5077308;28;20424;-59
2023/05/25 08:50:13;;;;;;;7.35;3.15;;;14.20;82.30;;;;;;5079534;28;20032;-59
2023/05/25 08:52:44;;;;;;;7.30;2.90;;;14.10;81.20;;;;;;5072262;28;20044;-59
2023/05/25 08:55:12;;;;;;;9.10;2.58;;;14.10;81.40;;;;;;5073902;28;20055;-60
2023/05/25 08:58:06;;;;;;;5.80;2.35;;;14.00;81.70;;;;;;5072281;28;20016;-60
2023/05/25 09:00:38;;;;;;;6.25;2.17;;;13.90;81.50;;;;;;5073285;28;20055;-59
2023/05/25 09:03:19;;;;;;;6.25;2.47;;;13.90;81.70;;;;;;5078685;28;20056;-61
2023/05/25 09:05:47;;;;;;;9.85;2.47;;;13.80;82.20;;;;;;5084169;28;20439;-59
2023/05/25 09:08:16;;;;;;;5.35;2.22;;;13.80;81.70;;;;;;5073181;28;20023;-58
2023/05/25 09:10:44;;;;;;;6.13;2.13;;;13.80;82.60;;;;;;5074016;28;20028;-59
2023/05/25 09:13:12;;;;;;;6.45;2.78;;;13.80;80.90;;;;;;5070705;28;20392;-59
2023/05/25 09:15:39;;;;;;;4.40;2.28;;;13.80;80.20;;;;;;5074261;28;20039;-59
2023/05/25 09:18:07;;;;;;;5.47;1.85;;;13.80;80.30;;;;;;5057818;28;20029;-59
2023/05/25 09:20:34;;;;;;;7.75;1.95;;;13.90;80.40;;;;;;5077985;28;20081;-58
2023/05/25 09:23:03;;;;;;;6.38;2.33;;;13.90;79.80;;;;;;5070922;28;20025;-59
2023/05/25 09:25:32;;;;;;;6.35;2.60;;;13.90;80.00;;;;;;5081503;28;20105;-63
2023/05/25 09:28:00;;;;;;;4.00;2.00;;;13.90;80.90;;;;;;5072436;28;20020;-59
2023/05/25 09:30:31;;;;;;;5.95;2.13;;;13.80;81.50;;;;;;5076992;28;20407;-58
2023/05/25 09:33:13;;;;;;;7.50;1.92;;;13.80;81.20;;;;;;5078900;28;20032;-60
2023/05/25 09:35:40;;;;;;;7.80;2.58;;;13.80;82.30;;;;;;5069280;28;20119;-59
2023/05/25 09:38:08;;;;;;;7.43;2.08;;;13.80;83.80;;;;;;5078004;28;20472;-60
2023/05/25 09:40:37;;;;;;;4.85;2.00;;;13.80;84.80;;;;;;5081286;28;20027;-60
2023/05/25 09:43:05;;;;;;;6.25;1.85;;;13.80;85.10;;;;;;5094122;28;20484;-59
2023/05/25 09:45:34;;;;;;;5.05;2.22;;;13.80;85.30;;;;;;5074230;28;20044;-61
2023/05/25 09:48:02;;;;;;;6.93;2.33;;;13.90;86.40;;;;;;5067464;28;20025;-59
2023/05/25 09:50:31;;;;;;;8.13;2.80;;;13.90;87.50;;;;;;5068342;28;20085;-60
2023/05/25 09:53:00;;;;;;;5.55;2.67;;;14.00;88.30;;;;;;5072265;28;20531;-59
2023/05/25 09:55:28;;;;;;;5.18;2.00;;;14.00;88.30;;;;;;5076884;28;20063;-60
2023/05/25 09:57:56;;;;;;;5.15;2.25;;;14.00;88.30;;;;;;5069780;28;20016;-60
2023/05/25 10:00:25;;;;;;;5.20;1.80;;;14.20;87.70;;;;;;5070699;28;20041;-61
2023/05/25 10:02:53;;;;;;;6.38;1.80;;;14.30;87.00;;;;;;5076287;28;20021;-60
2023/05/25 10:05:20;;;;;;;5.28;1.70;;;14.40;85.40;;;;;;5083127;28;20033;-60
2023/05/25 10:07:52;;;;;;;7.45;1.58;;;14.60;83.70;;;;;;5067738;28;20529;-61
2023/05/25 10:10:20;;;;;;;4.88;1.75;;;14.60;82.80;;;;;;5077538;28;20032;-59
2023/05/25 10:12:52;;;;;;;4.70;1.77;;;14.60;82.10;;;;;;5073883;28;20512;-59
2023/05/25 10:15:21;;;;;;;5.15;1.48;;;14.70;82.30;;;;;;5068873;28;20713;-60
2023/05/25 10:17:57;;;;;;;5.22;1.88;;;14.80;82.10;;;;;;5071457;28;20032;-60
2023/05/25 10:20:25;;;;;;;6.55;2.15;;;14.80;82.60;;;;;;5050472;28;20032;-60
2023/05/25 10:22:53;;;;;;;5.50;1.80;;;14.90;82.60;;;;;;5068580;28;20077;-58
2023/05/25 10:25:26;;;;;;;4.18;2.05;;;14.90;81.30;;;;;;5073703;28;20304;-58
2023/05/25 10:28:00;;;;;;;3.72;1.65;;;14.90;82.00;;;;;;5069656;28;20093;-54
2023/05/25 10:30:27;;;;;;;3.72;2.05;;;14.80;82.20;;;;;;5053277;28;20488;-59
2023/05/25 10:32:58;;;;;;;3.45;1.45;;;14.80;82.00;;;;;;5075704;28;20036;-59
2023/05/25 10:35:25;;;;;;;7.03;1.73;;;14.90;82.10;;;;;;5072913;28;20043;-61
2023/05/25 10:37:54;;;;;;;5.20;1.90;;;15.00;82.20;;;;;;5073551;28;20036;-60
2023/05/25 10:40:22;;;;;;;4.53;1.80;;;14.90;81.50;;;;;;5054233;28;20036;-60
2023/05/25 10:42:52;;;;;;;8.13;2.75;;;14.80;81.60;;;;;;5072547;28;20172;-60
2023/05/25 10:45:21;;;;;;;6.85;1.63;;;14.80;82.30;;;;;;5068153;28;20487;-60
2023/05/25 10:47:49;;;;;;;2.95;1.50;;;14.80;83.00;;;;;;5075907;28;20032;-61
2023/05/25 10:50:25;;;;;;;4.40;1.40;;;14.70;83.60;;;;;;5054824;28;20499;-60
2023/05/25 10:53:07;;;;;;;4.25;2.03;;;14.60;85.40;;;;;;5053906;28;20485;-60
2023/05/25 10:55:51;;;;;;;5.55;2.28;;;14.50;85.40;;;;;;5053860;28;20028;-60
2023/05/25 10:58:21;;;;;;;5.13;1.60;;;14.40;85.90;;;;;;5057704;28;20607;-60
2023/05/25 11:01:02;;;;;;;6.00;1.83;;;14.30;87.70;;;;;;5060571;28;20041;-61
2023/05/25 11:03:44;;;;;;;6.82;3.35;;;14.30;87.90;;;;;;5054638;28;20021;-59
2023/05/25 11:06:16;;;;;;;7.00;2.42;;;14.30;87.40;;;;;;5059903;28;20039;-60
2023/05/25 11:08:52;;;;;;;8.20;2.28;;;14.30;87.70;;;;;;5061139;28;21071;-60
2023/05/25 11:11:21;;;;;;;8.00;1.83;;;14.20;87.20;;;;;;5056496;28;20087;-59
2023/05/25 11:13:49;;;;;;;4.55;2.17;;;14.20;87.30;;;;;;5052651;28;20029;-60
2023/05/25 11:16:18;;;;;;;3.67;1.92;;;14.20;87.70;;;;;;5056864;28;20505;-60
2023/05/25 11:18:59;;;;;;;6.38;1.63;;;14.20;88.00;;;;;;5063886;28;20735;-60
2023/05/25 11:21:27;;;;;;;6.72;2.42;;;14.20;86.90;;;;;;5056562;28;20028;-62
2023/05/25 11:24:15;;;;;;;3.83;1.63;;;14.30;86.20;;;;;;5058450;28;20056;-61
2023/05/25 11:26:58;;;;;;;4.53;1.83;;;14.30;83.90;;;;;;5054065;28;20028;-61
2023/05/25 11:29:29;;;;;;;6.35;1.90;;;14.40;81.40;;;;;;5056919;28;20033;-58
2023/05/25 11:31:58;;;;;;;7.75;1.85;;;14.50;80.90;;;;;;5058429;28;20029;-61
2023/05/25 11:34:26;;;;;;;4.75;1.98;;;14.60;79.20;;;;;;5055540;28;20053;-60
2023/05/25 11:36:56;;;;;;;5.75;1.90;;;14.70;78.10;;;;;;5058091;28;20496;-61
2023/05/25 11:39:24;;;;;;;7.65;1.38;;;14.70;78.10;;;;;;5057910;28;20112;-60
2023/05/25 11:41:56;;;;;;;5.90;1.98;;;14.60;77.60;;;;;;5053252;28;20115;-60
2023/05/25 11:44:32;;;;;;;3.35;1.45;;;14.60;77.50;;;;;;5055284;28;20025;-60
2023/05/25 11:47:08;;;;;;;4.35;1.30;;;14.80;76.80;;;;;;5059228;28;20040;-60
2023/05/25 11:49:44;;;;;;;4.90;1.77;;;14.90;76.80;;;;;;5060808;28;20027;-59
2023/05/25 11:52:13;;;;;;;4.38;1.42;;;14.80;76.10;;;;;;5063237;28;20093;-60
2023/05/25 11:54:41;;;;;;;5.50;1.60;;;14.80;75.60;;;;;;5077697;28;20082;-59
2023/05/25 11:57:26;;;;;;;5.03;2.10;;;14.80;75.40;;;;;;5081533;28;20396;-59
2023/05/25 11:59:56;;;;;;;4.68;1.58;;;14.90;76.00;;;;;;5053764;28;20031;-59
2023/05/25 12:02:23;;;;;;;10.55;2.30;;;15.00;75.10;;;;;;5070940;28;20077;-60
2023/05/25 12:05:01;;;;;;;5.32;1.70;;;15.00;74.80;;;;;;5058282;28;20024;-61
2023/05/25 12:07:30;;;;;;;6.07;1.77;;;15.00;74.90;;;;;;5059357;28;20020;-59
2023/05/25 12:10:17;;;;;;;4.10;1.75;;;15.00;74.40;;;;;;5053144;28;20107;-60
2023/05/25 12:12:45;;;;;;;6.03;1.65;;;15.00;75.30;;;;;;5073029;28;20402;-62
2023/05/25 12:15:20;;;;;;;4.03;1.48;;;15.00;74.70;;;;;;5067748;28;20107;-58
2023/05/25 12:17:48;;;;;;;7.10;2.45;;;15.00;74.30;;;;;;5073034;28;20020;-60
2023/05/25 12:20:16;;;;;;;4.82;1.58;;;15.00;75.00;;;;;;5063916;28;20028;-59
2023/05/25 12:22:45;;;;;;;5.20;1.75;;;15.00;74.80;;;;;;5058410;28;20025;-59
2023/05/25 12:25:14;;;;;;;3.88;1.45;;;15.00;75.90;;;;;;5077009;28;20017;-60
2023/05/25 12:27:42;;;;;;;7.00;1.58;;;15.00;75.50;;;;;;5076468;28;20392;-59
2023/05/25 12:30:10;;;;;;;7.45;2.17;;;14.90;76.90;;;;;;5072824;28;20043;-58
2023/05/25 12:33:03;;;;;;;4.97;1.60;;;14.80;77.50;;;;;;5077061;28;20021;-58
2023/05/25 12:35:46;;;;;;;6.32;1.92;;;14.70;77.80;;;;;;5081459;28;20036;-61
2023/05/25 12:38:17;;;;;;;7.75;1.70;;;14.60;78.60;;;;;;5053934;28;20388;-58
2023/05/25 12:40:45;;;;;;;7.65;1.73;;;14.60;78.90;;;;;;5083631;28;20470;-60
2023/05/25 12:43:15;;;;;;;14.80;1.80;;;14.40;79.90;;;;;;5071098;28;20073;-60
2023/05/25 12:45:43;;;;;;;4.43;1.33;;;14.40;81.10;;;;;;5074428;28;20028;-60
2023/05/25 12:48:10;;;;;;;6.10;2.00;;;14.30;81.00;;;;;;5085516;28;20449;-60
2023/05/25 12:50:38;;;;;;;6.00;1.70;;;14.30;81.40;;;;;;5073483;28;20017;-60
2023/05/25 12:53:06;;;;;;;5.32;2.03;;;14.30;81.40;;;;;;5074741;28;20048;-60
2023/05/25 12:55:34;;;;;;;5.15;1.75;;;14.40;81.50;;;;;;5058891;28;20039;-59